createdAt,value
2024-05-09T00:00:43.762Z,96.02
2024-05-09T00:01:46.581Z,96.14
2024-05-09T00:02:49.076Z,95.90
2024-05-09T00:03:51.530Z,95.94
2024-05-09T00:04:54.017Z,95.05
2024-05-09T00:05:56.592Z,95.08
2024-05-09T00:06:59.152Z,95.25
2024-05-09T00:08:01.817Z,95.46
2024-05-09T00:09:04.502Z,95.37
2024-05-09T00:10:09.212Z,95.90
2024-05-09T00:11:16.399Z,95.82
2024-05-09T00:12:19.045Z,96.32
2024-05-09T00:13:21.511Z,96.13
2024-05-09T00:14:23.998Z,96.24
2024-05-09T00:15:26.495Z,96.21
2024-05-09T00:16:28.986Z,96.53
2024-05-09T00:17:31.621Z,96.10
2024-05-09T00:18:34.241Z,96.11
2024-05-09T00:19:36.728Z,95.91
2024-05-09T00:20:41.049Z,95.67
2024-05-09T00:21:44.241Z,95.39
2024-05-09T00:22:46.815Z,94.75
2024-05-09T00:23:49.235Z,90.85
2024-05-09T00:24:51.651Z,91.45
2024-05-09T00:25:54.074Z,91.75
2024-05-09T00:26:56.521Z,91.88
2024-05-09T00:27:58.976Z,92.26
2024-05-09T00:29:01.467Z,92.77
2024-05-09T00:30:04.365Z,92.75
2024-05-09T00:31:06.823Z,92.01
2024-05-09T00:32:09.272Z,91.56
2024-05-09T00:33:12.126Z,91.31
2024-05-09T00:34:14.675Z,90.41
2024-05-09T00:35:17.171Z,90.36
2024-05-09T00:36:19.717Z,89.57
2024-05-09T00:37:22.280Z,89.44
2024-05-09T00:38:24.813Z,88.10
2024-05-09T00:39:27.325Z,87.33
2024-05-09T00:40:40.853Z,85.64
2024-05-09T00:41:45.192Z,83.67
2024-05-09T00:42:47.744Z,83.68
2024-05-09T00:43:50.183Z,82.49
2024-05-09T00:44:52.615Z,79.38
2024-05-09T00:45:57.593Z,77.76
2024-05-09T00:47:00.324Z,74.93
2024-05-09T00:48:07.560Z,74.31
2024-05-09T00:49:11.992Z,73.72
2024-05-09T00:50:19.399Z,74.14
2024-05-09T00:51:25.438Z,74.30
2024-05-09T00:52:28.704Z,74.64
2024-05-09T00:53:31.403Z,75.27
2024-05-09T00:54:34.182Z,76.47
2024-05-09T00:55:37.895Z,80.58
2024-05-09T00:56:41.840Z,83.00
2024-05-09T00:57:45.044Z,84.11
2024-05-09T00:58:48.034Z,84.60
2024-05-09T00:59:50.593Z,84.73
2024-05-09T01:00:53.505Z,85.03
2024-05-09T01:01:56.175Z,85.25
2024-05-09T01:02:58.802Z,85.35
2024-05-09T01:04:02.050Z,84.94
2024-05-09T01:05:05.032Z,85.09
2024-05-09T01:06:07.474Z,85.07
2024-05-09T01:07:11.293Z,82.94
2024-05-09T01:08:13.992Z,82.55
2024-05-09T01:09:16.459Z,82.53
2024-05-09T01:10:27.447Z,81.87
2024-05-09T01:11:39.054Z,81.24
2024-05-09T01:12:41.592Z,78.93
2024-05-09T01:13:47.298Z,76.91
2024-05-09T01:14:49.701Z,77.22
2024-05-09T01:15:54.194Z,76.06
2024-05-09T01:16:56.729Z,75.95
2024-05-09T01:18:01.709Z,75.32
2024-05-09T01:19:04.830Z,75.53
2024-05-09T01:20:10.734Z,74.22
2024-05-09T01:21:18.683Z,74.01
2024-05-09T01:22:21.762Z,73.40
2024-05-09T01:23:24.237Z,71.33
2024-05-09T01:24:26.807Z,71.97
2024-05-09T01:25:29.263Z,71.59
2024-05-09T01:26:31.725Z,71.57
2024-05-09T01:27:34.134Z,70.71
2024-05-09T01:28:36.528Z,69.32
2024-05-09T01:29:38.944Z,68.70
2024-05-09T01:30:41.369Z,68.39
2024-05-09T01:31:45.919Z,68.01
2024-05-09T01:32:48.479Z,67.39
2024-05-09T01:33:51.194Z,67.54
2024-05-09T01:34:53.762Z,67.82
2024-05-09T01:35:56.180Z,67.30
2024-05-09T01:36:58.644Z,67.29
2024-05-09T01:38:01.112Z,65.61
2024-05-09T01:39:03.814Z,65.02
2024-05-09T01:40:12.189Z,65.18
2024-05-09T01:41:17.572Z,65.51
2024-05-09T01:42:20.021Z,66.01
2024-05-09T01:43:22.401Z,66.53
2024-05-09T01:44:24.878Z,66.29
2024-05-09T01:45:27.510Z,66.15
2024-05-09T01:46:29.919Z,65.79
2024-05-09T01:47:32.473Z,65.23
2024-05-09T01:48:35.019Z,64.73
2024-05-09T01:49:37.744Z,64.83
2024-05-09T01:50:42.576Z,64.70
2024-05-09T01:51:45.761Z,64.44
2024-05-09T01:52:48.141Z,64.04
2024-05-09T01:53:50.595Z,64.56
2024-05-09T01:54:53.036Z,64.72
2024-05-09T01:55:55.510Z,65.08
2024-05-09T01:56:57.982Z,65.34
2024-05-09T01:58:00.411Z,65.96
2024-05-09T01:59:02.913Z,65.90
2024-05-09T02:00:07.717Z,66.11
2024-05-09T02:01:10.313Z,65.52
2024-05-09T02:02:13.372Z,65.70
2024-05-09T02:03:17.637Z,65.42
2024-05-09T02:04:20.771Z,65.63
2024-05-09T02:05:23.452Z,65.26
2024-05-09T02:06:25.943Z,64.95
2024-05-09T02:07:28.432Z,65.38
2024-05-09T02:08:30.922Z,64.94
2024-05-09T02:09:33.452Z,64.35
2024-05-09T02:10:35.869Z,64.62
2024-05-09T02:11:44.819Z,64.57
2024-05-09T02:12:47.298Z,64.96
2024-05-09T02:13:49.719Z,64.71
2024-05-09T02:14:52.211Z,64.51
2024-05-09T02:15:56.173Z,64.32
2024-05-09T02:16:58.600Z,64.15
2024-05-09T02:18:01.237Z,64.22
2024-05-09T02:19:04.040Z,64.05
2024-05-09T02:20:10.747Z,64.27
2024-05-09T02:21:15.823Z,62.00
2024-05-09T02:22:18.402Z,60.44
2024-05-09T02:23:21.002Z,61.18
2024-05-09T02:24:23.428Z,61.37
2024-05-09T02:25:27.271Z,60.63
2024-05-09T02:26:29.714Z,60.18
2024-05-09T02:27:32.179Z,59.65
2024-05-09T02:28:34.639Z,59.29
2024-05-09T02:29:37.037Z,58.93
2024-05-09T02:30:41.601Z,57.88
2024-05-09T02:31:45.129Z,58.00
2024-05-09T02:32:48.004Z,58.26
2024-05-09T02:33:50.912Z,58.29
2024-05-09T02:34:53.530Z,58.07
2024-05-09T02:35:55.962Z,57.88
2024-05-09T02:36:58.446Z,57.61
2024-05-09T02:38:01.015Z,57.84
2024-05-09T02:39:03.570Z,57.56
2024-05-09T02:40:09.135Z,57.17
2024-05-09T02:41:13.938Z,57.28
2024-05-09T02:42:16.397Z,57.55
2024-05-09T02:43:18.857Z,58.39
2024-05-09T02:44:21.748Z,59.17
2024-05-09T02:45:25.061Z,59.42
2024-05-09T02:46:27.484Z,59.61
2024-05-09T02:47:30.071Z,60.11
2024-05-09T02:48:32.722Z,62.51
2024-05-09T02:49:35.299Z,64.17
2024-05-09T02:50:39.881Z,64.51
2024-05-09T02:51:42.801Z,65.92
2024-05-09T02:52:45.260Z,67.38
2024-05-09T02:53:47.769Z,68.50
2024-05-09T02:54:50.287Z,69.32
2024-05-09T02:55:52.703Z,69.10
2024-05-09T02:56:55.121Z,69.42
2024-05-09T02:57:57.599Z,68.58
2024-05-09T02:59:00.017Z,68.45
2024-05-09T03:00:03.661Z,68.88
2024-05-09T03:01:08.327Z,69.14
2024-05-09T03:02:10.957Z,69.45
2024-05-09T03:03:15.265Z,69.62
2024-05-09T03:04:19.030Z,69.74
2024-05-09T03:05:21.516Z,69.58
2024-05-09T03:06:23.927Z,69.17
2024-05-09T03:07:26.296Z,68.58
2024-05-09T03:08:28.879Z,68.40
2024-05-09T03:09:31.326Z,68.33
2024-05-09T03:10:36.610Z,68.35
2024-05-09T03:11:40.991Z,67.74
2024-05-09T03:12:43.642Z,65.53
2024-05-09T03:13:46.097Z,65.46
2024-05-09T03:14:50.583Z,65.32
2024-05-09T03:15:52.958Z,64.22
2024-05-09T03:16:55.341Z,63.99
2024-05-09T03:17:57.843Z,64.12
2024-05-09T03:19:00.357Z,64.52
2024-05-09T03:20:05.223Z,63.68
2024-05-09T03:21:09.358Z,63.40
2024-05-09T03:22:12.718Z,63.09
2024-05-09T03:23:15.407Z,62.93
2024-05-09T03:24:17.932Z,63.36
2024-05-09T03:25:20.451Z,62.84
2024-05-09T03:26:22.948Z,62.76
2024-05-09T03:27:25.568Z,62.43
2024-05-09T03:28:27.987Z,62.57
2024-05-09T03:29:30.499Z,62.11
2024-05-09T03:30:40.142Z,61.72
2024-05-09T03:31:45.297Z,61.75
2024-05-09T03:32:48.040Z,61.24
2024-05-09T03:33:50.834Z,61.28
2024-05-09T03:34:53.281Z,61.21
2024-05-09T03:35:55.698Z,61.56
2024-05-09T03:36:58.100Z,61.59
2024-05-09T03:38:00.586Z,60.67
2024-05-09T03:39:03.093Z,60.05
2024-05-09T03:40:11.801Z,59.06
2024-05-09T03:41:19.520Z,58.67
2024-05-09T03:42:21.947Z,58.14
2024-05-09T03:43:24.318Z,58.36
2024-05-09T03:44:26.800Z,58.43
2024-05-09T03:45:29.435Z,58.38
2024-05-09T03:46:31.878Z,57.97
2024-05-09T03:47:35.773Z,56.93
2024-05-09T03:48:38.409Z,56.15
2024-05-09T03:49:41.099Z,55.61
2024-05-09T03:50:43.647Z,54.87
2024-05-09T03:51:47.021Z,54.44
2024-05-09T03:52:49.535Z,54.21
2024-05-09T03:53:52.033Z,54.86
2024-05-09T03:54:54.443Z,55.12
2024-05-09T03:55:57.478Z,55.03
2024-05-09T03:56:59.955Z,54.88
2024-05-09T03:58:02.363Z,54.82
2024-05-09T03:59:04.767Z,54.57
2024-05-09T04:00:14.834Z,54.36
2024-05-09T04:01:27.456Z,54.32
2024-05-09T04:02:29.999Z,54.06
2024-05-09T04:03:34.303Z,54.05
2024-05-09T04:04:36.922Z,54.60
2024-05-09T04:05:44.341Z,54.71
2024-05-09T04:06:47.170Z,54.62
2024-05-09T04:07:49.554Z,54.75
2024-05-09T04:08:52.094Z,55.08
2024-05-09T04:09:54.541Z,54.62
2024-05-09T04:10:56.996Z,54.83
2024-05-09T04:11:59.583Z,55.39
2024-05-09T04:13:03.041Z,55.75
2024-05-09T04:14:05.791Z,56.04
2024-05-09T04:15:11.202Z,56.23
2024-05-09T04:16:15.143Z,56.20
2024-05-09T04:17:17.558Z,56.29
2024-05-09T04:18:19.988Z,56.08
2024-05-09T04:19:22.605Z,56.42
2024-05-09T04:20:35.818Z,56.29
2024-05-09T04:21:41.666Z,56.57
2024-05-09T04:22:44.129Z,56.11
2024-05-09T04:23:46.550Z,55.85
2024-05-09T04:24:48.906Z,56.33
2024-05-09T04:25:51.345Z,56.57
2024-05-09T04:26:53.891Z,55.31
2024-05-09T04:27:56.413Z,54.82
2024-05-09T04:28:58.942Z,54.80
2024-05-09T04:30:01.338Z,55.17
2024-05-09T04:31:03.784Z,55.45
2024-05-09T04:32:07.389Z,55.22
2024-05-09T04:33:12.266Z,55.21
2024-05-09T04:34:16.590Z,54.68
2024-05-09T04:35:21.334Z,54.97
2024-05-09T04:36:24.054Z,54.58
2024-05-09T04:37:26.602Z,54.06
2024-05-09T04:38:30.422Z,53.91
2024-05-09T04:39:32.865Z,53.40
2024-05-09T04:40:37.130Z,53.52
2024-05-09T04:41:40.284Z,52.89
2024-05-09T04:42:42.862Z,52.87
2024-05-09T04:43:45.300Z,52.65
2024-05-09T04:44:49.908Z,52.90
2024-05-09T04:45:52.335Z,52.56
2024-05-09T04:46:54.641Z,52.49
2024-05-09T04:47:58.241Z,52.14
2024-05-09T04:49:01.068Z,52.02
2024-05-09T04:50:05.465Z,52.68
2024-05-09T04:51:09.831Z,52.70
2024-05-09T04:52:12.504Z,53.18
2024-05-09T04:53:18.143Z,53.04
2024-05-09T04:55:25.864Z,52.80
2024-05-09T04:56:28.301Z,51.74
2024-05-09T04:57:30.832Z,51.74
2024-05-09T04:58:33.306Z,51.56
2024-05-09T04:59:36.683Z,52.00
2024-05-09T05:00:40.696Z,51.17
2024-05-09T05:01:43.594Z,51.15
2024-05-09T05:02:45.999Z,51.43
2024-05-09T05:03:48.646Z,51.39
2024-05-09T05:04:51.488Z,51.24
2024-05-09T05:05:54.191Z,51.30
2024-05-09T05:06:58.381Z,51.80
2024-05-09T05:08:02.178Z,51.77
2024-05-09T05:09:04.580Z,51.60
2024-05-09T05:10:09.354Z,50.57
2024-05-09T05:11:14.362Z,50.23
2024-05-09T05:12:35.675Z,50.42
2024-05-09T05:13:40.845Z,49.95
2024-05-09T05:14:43.909Z,50.22
2024-05-09T05:15:46.951Z,50.66
2024-05-09T05:16:49.498Z,49.61
2024-05-09T05:17:52.143Z,49.37
2024-05-09T05:18:54.838Z,48.99
2024-05-09T05:19:57.891Z,48.94
2024-05-09T05:21:00.370Z,48.76
2024-05-09T05:22:02.826Z,49.04
2024-05-09T05:23:08.427Z,49.36
2024-05-09T05:24:10.837Z,49.60
2024-05-09T05:25:13.310Z,49.96
2024-05-09T05:26:20.536Z,47.57
2024-05-09T05:27:23.097Z,48.03
2024-05-09T05:28:25.536Z,47.81
2024-05-09T05:29:28.005Z,47.86
2024-05-09T05:30:34.540Z,48.15
2024-05-09T05:31:37.546Z,48.22
2024-05-09T05:32:40.117Z,47.26
2024-05-09T05:33:42.597Z,47.49
2024-05-09T05:34:45.116Z,48.01
2024-05-09T05:35:47.709Z,48.21
2024-05-09T05:36:50.125Z,47.26
2024-05-09T05:37:52.517Z,47.02
2024-05-09T05:38:54.982Z,46.38
2024-05-09T05:39:58.409Z,46.67
2024-05-09T05:41:00.869Z,46.28
2024-05-09T05:42:03.314Z,46.47
2024-05-09T05:43:06.586Z,46.32
2024-05-09T05:44:11.379Z,45.64
2024-05-09T05:45:13.876Z,45.31
2024-05-09T05:46:16.406Z,45.25
2024-05-09T05:47:18.843Z,45.38
2024-05-09T05:48:21.560Z,46.14
2024-05-09T05:49:24.151Z,46.31
2024-05-09T05:50:32.845Z,46.79
2024-05-09T05:51:38.697Z,46.86
2024-05-09T05:52:41.073Z,46.00
2024-05-09T05:53:44.917Z,45.96
2024-05-09T05:54:48.773Z,45.65
2024-05-09T05:55:51.298Z,44.28
2024-05-09T05:56:53.690Z,44.67
2024-05-09T05:57:56.071Z,44.89
2024-05-09T05:58:58.542Z,45.60
2024-05-09T06:00:00.939Z,46.12
2024-05-09T06:01:03.353Z,46.32
2024-05-09T06:02:06.305Z,46.17
2024-05-09T06:03:10.226Z,46.19
2024-05-09T06:04:13.231Z,46.35
2024-05-09T06:05:15.669Z,46.76
2024-05-09T06:06:18.121Z,47.67
2024-05-09T06:07:20.469Z,46.62
2024-05-09T06:08:23.716Z,46.69
2024-05-09T06:09:27.085Z,45.86
2024-05-09T06:10:37.627Z,46.52
2024-05-09T06:11:43.028Z,46.26
2024-05-09T06:12:45.509Z,45.35
2024-05-09T06:13:48.011Z,45.35
2024-05-09T06:14:50.454Z,45.23
2024-05-09T06:15:52.795Z,45.91
2024-05-09T06:16:58.117Z,45.92
2024-05-09T06:18:00.907Z,46.10
2024-05-09T06:19:03.766Z,48.18
2024-05-09T06:20:13.278Z,45.95
2024-05-09T06:21:19.486Z,46.51
2024-05-09T06:22:22.024Z,46.98
2024-05-09T06:23:24.441Z,47.00
2024-05-09T06:24:26.798Z,46.85
2024-05-09T06:25:29.253Z,46.68
2024-05-09T06:26:32.451Z,46.13
2024-05-09T06:27:34.969Z,45.44
2024-05-09T06:28:37.416Z,45.71
2024-05-09T06:29:39.916Z,44.84
2024-05-09T06:30:43.329Z,44.81
2024-05-09T06:31:46.546Z,45.62
2024-05-09T06:32:49.108Z,46.45
2024-05-09T06:33:51.737Z,45.76
2024-05-09T06:34:54.357Z,45.60
2024-05-09T06:35:59.669Z,46.25
2024-05-09T06:37:02.077Z,45.35
2024-05-09T06:38:05.058Z,45.16
2024-05-09T06:39:10.248Z,45.44
2024-05-09T06:40:17.390Z,45.70
2024-05-09T06:41:19.929Z,45.86
2024-05-09T06:42:22.358Z,44.96
2024-05-09T06:43:24.723Z,44.88
2024-05-09T06:44:27.263Z,44.89
2024-05-09T06:45:29.826Z,44.66
2024-05-09T06:46:32.260Z,44.92
2024-05-09T06:47:34.809Z,44.91
2024-05-09T06:48:37.638Z,46.78
2024-05-09T06:49:41.550Z,46.07
2024-05-09T06:50:44.386Z,44.50
2024-05-09T06:51:46.875Z,43.65
2024-05-09T06:52:49.287Z,43.99
2024-05-09T06:53:51.725Z,43.82
2024-05-09T06:54:54.174Z,43.53
2024-05-09T06:55:56.631Z,43.71
2024-05-09T06:56:59.041Z,43.07
2024-05-09T06:58:01.476Z,43.18
2024-05-09T06:59:04.009Z,42.96
2024-05-09T07:00:10.297Z,42.38
2024-05-09T07:01:15.098Z,43.09
2024-05-09T07:02:17.593Z,43.58
2024-05-09T07:03:20.265Z,42.85
2024-05-09T07:04:22.937Z,43.21
2024-05-09T07:05:25.742Z,43.36
2024-05-09T07:06:28.341Z,43.05
2024-05-09T07:07:30.782Z,43.71
2024-05-09T07:08:33.346Z,44.14
2024-05-09T07:09:36.178Z,44.34
2024-05-09T07:10:38.767Z,44.04
2024-05-09T07:11:41.646Z,44.00
2024-05-09T07:12:44.209Z,43.67
2024-05-09T07:13:46.791Z,43.39
2024-05-09T07:14:49.252Z,43.82
2024-05-09T07:15:51.648Z,42.73
2024-05-09T07:16:54.218Z,42.66
2024-05-09T07:17:56.924Z,42.42
2024-05-09T07:18:59.656Z,42.97
2024-05-09T07:20:02.305Z,43.26
2024-05-09T07:21:05.226Z,43.33
2024-05-09T07:22:07.670Z,42.91
2024-05-09T07:23:10.967Z,43.04
2024-05-09T07:24:13.498Z,43.25
2024-05-09T07:25:15.916Z,42.58
2024-05-09T07:26:18.675Z,42.50
2024-05-09T07:27:21.172Z,42.83
2024-05-09T07:28:23.583Z,42.68
2024-05-09T07:29:26.045Z,42.84
2024-05-09T07:30:33.433Z,43.00
2024-05-09T07:31:37.174Z,42.43
2024-05-09T07:32:39.782Z,42.71
2024-05-09T07:33:42.470Z,41.79
2024-05-09T07:34:45.122Z,41.72
2024-05-09T07:35:47.719Z,41.90
2024-05-09T07:36:50.147Z,41.70
2024-05-09T07:37:52.662Z,41.08
2024-05-09T07:38:55.127Z,41.88
2024-05-09T07:39:57.545Z,41.21
2024-05-09T07:41:00.116Z,40.64
2024-05-09T07:42:02.584Z,40.41
2024-05-09T07:43:05.420Z,40.73
2024-05-09T07:44:07.872Z,40.20
2024-05-09T07:45:29.639Z,40.73
2024-05-09T07:49:11.911Z,41.17
2024-05-09T07:50:53.215Z,40.89
2024-05-09T07:53:08.288Z,40.47
2024-05-09T07:53:35.489Z,40.08
2024-05-09T07:54:16.276Z,40.55
2024-05-09T07:55:19.145Z,40.72
2024-05-09T07:56:23.331Z,40.91
2024-05-09T07:57:26.719Z,40.70
2024-05-09T07:58:29.263Z,39.10
2024-05-09T07:59:35.056Z,39.30
2024-05-09T08:00:39.617Z,37.47
2024-05-09T08:01:42.265Z,36.96
2024-05-09T08:02:44.958Z,35.41
2024-05-09T08:03:47.746Z,36.45
2024-05-09T08:04:50.283Z,34.93
2024-05-09T08:05:52.942Z,34.44
2024-05-09T08:06:55.619Z,34.07
2024-05-09T08:07:58.071Z,33.38
2024-05-09T08:09:05.318Z,34.87
2024-05-09T08:10:12.896Z,34.51
2024-05-09T08:11:17.820Z,34.13
2024-05-09T08:12:20.266Z,33.49
2024-05-09T08:13:23.071Z,34.38
2024-05-09T08:14:25.609Z,34.29
2024-05-09T08:15:28.265Z,34.28
2024-05-09T08:16:30.889Z,32.92
2024-05-09T08:17:33.482Z,33.09
2024-05-09T08:18:36.158Z,32.89
2024-05-09T08:19:40.915Z,33.14
2024-05-09T08:20:43.465Z,33.35
2024-05-09T08:21:45.908Z,32.98
2024-05-09T08:22:48.369Z,32.99
2024-05-09T08:23:50.748Z,33.17
2024-05-09T08:24:53.212Z,33.63
2024-05-09T08:25:55.599Z,32.53
2024-05-09T08:26:57.986Z,32.23
2024-05-09T08:28:00.469Z,32.18
2024-05-09T08:29:03.482Z,32.46
2024-05-09T08:30:08.022Z,32.95
2024-05-09T08:31:12.867Z,32.74
2024-05-09T08:32:15.404Z,32.42
2024-05-09T08:33:18.082Z,32.74
2024-05-09T08:34:20.877Z,32.09
2024-05-09T08:35:23.394Z,31.84
2024-05-09T08:36:25.773Z,31.69
2024-05-09T08:37:32.813Z,32.00
2024-05-09T08:38:39.334Z,31.75
2024-05-09T08:39:41.767Z,31.56
2024-05-09T08:40:44.416Z,32.57
2024-05-09T08:41:50.066Z,33.10
2024-05-09T08:42:56.277Z,33.86
2024-05-09T08:43:58.850Z,32.85
2024-05-09T08:45:01.781Z,33.63
2024-05-09T08:46:04.870Z,31.26
2024-05-09T08:47:09.766Z,30.88
2024-05-09T08:48:14.545Z,30.32
2024-05-09T08:49:18.501Z,32.05
2024-05-09T08:50:31.644Z,30.83
2024-05-09T08:51:40.467Z,31.75
2024-05-09T08:52:43.256Z,31.41
2024-05-09T08:53:45.646Z,32.07
2024-05-09T08:54:48.139Z,31.39
2024-05-09T08:55:51.625Z,31.02
2024-05-09T08:56:54.109Z,31.49
2024-05-09T08:57:56.602Z,30.90
2024-05-09T08:59:01.387Z,30.25
2024-05-09T09:00:09.945Z,30.78
2024-05-09T09:01:15.985Z,29.14
2024-05-09T09:02:19.463Z,29.34
2024-05-09T09:03:25.486Z,30.36
2024-05-09T09:04:28.913Z,30.92
2024-05-09T09:05:32.276Z,32.27
2024-05-09T09:06:35.050Z,31.36
2024-05-09T09:07:39.124Z,31.37
2024-05-09T09:08:41.562Z,31.55
2024-05-09T09:09:45.466Z,30.29
2024-05-09T09:10:48.048Z,29.04
2024-05-09T09:11:50.621Z,27.71
2024-05-09T09:12:59.820Z,27.52
2024-05-09T09:14:02.368Z,27.41
2024-05-09T09:15:05.013Z,27.38
2024-05-09T09:16:07.789Z,27.19
2024-05-09T09:17:16.765Z,27.57
2024-05-09T09:18:19.450Z,27.74
2024-05-09T09:19:23.270Z,27.38
2024-05-09T09:20:34.106Z,27.61
2024-05-09T09:21:39.130Z,26.61
2024-05-09T09:22:41.537Z,27.43
2024-05-09T09:23:43.925Z,27.05
2024-05-09T09:24:46.508Z,27.02
2024-05-09T09:25:49.084Z,27.15
2024-05-09T09:26:51.543Z,26.73
2024-05-09T09:27:54.047Z,26.83
2024-05-09T09:29:00.900Z,26.25
2024-05-09T09:30:03.665Z,26.50
2024-05-09T09:31:07.002Z,25.64
2024-05-09T09:32:10.771Z,26.18
2024-05-09T09:33:13.468Z,26.50
2024-05-09T09:34:16.227Z,26.29
2024-05-09T09:35:18.803Z,26.42
2024-05-09T09:36:21.180Z,26.40
2024-05-09T09:37:28.952Z,27.22
2024-05-09T09:38:32.618Z,26.62
2024-05-09T09:39:36.669Z,25.49
2024-05-09T09:40:46.836Z,25.40
2024-05-09T09:41:52.278Z,26.48
2024-05-09T09:42:57.824Z,25.74
2024-05-09T09:44:00.968Z,25.75
2024-05-09T09:45:05.566Z,24.56
2024-05-09T09:46:12.291Z,24.86
2024-05-09T09:47:15.851Z,25.35
2024-05-09T09:48:20.364Z,26.42
2024-05-09T09:49:32.995Z,25.91
2024-05-09T09:50:37.033Z,24.42
2024-05-09T09:51:43.776Z,24.95
2024-05-09T09:52:46.869Z,25.43
2024-05-09T09:53:49.907Z,25.35
2024-05-09T09:54:52.578Z,23.78
2024-05-09T09:55:56.323Z,23.56
2024-05-09T09:56:58.720Z,24.18
2024-05-09T09:58:01.415Z,24.54
2024-05-09T09:59:04.888Z,24.86
2024-05-09T10:00:11.761Z,24.76
2024-05-09T10:01:14.598Z,24.39
2024-05-09T10:02:17.341Z,25.38
2024-05-09T10:03:20.024Z,23.71
2024-05-09T10:04:22.773Z,24.54
2024-05-09T10:05:25.927Z,24.83
2024-05-09T10:06:29.160Z,23.83
2024-05-09T10:07:31.951Z,23.92
2024-05-09T10:08:35.193Z,24.09
2024-05-09T10:09:37.638Z,24.28
2024-05-09T10:10:40.297Z,24.02
2024-05-09T10:11:49.093Z,25.30
2024-05-09T10:12:59.788Z,25.36
2024-05-09T10:14:02.357Z,25.60
2024-05-09T10:15:11.397Z,25.37
2024-05-09T10:16:20.699Z,24.64
2024-05-09T10:17:23.408Z,25.31
2024-05-09T10:18:36.652Z,24.84
2024-05-09T10:19:39.155Z,25.50
2024-05-09T10:20:42.317Z,26.64
2024-05-09T10:21:47.618Z,26.31
2024-05-09T10:22:50.708Z,26.38
2024-05-09T10:24:07.300Z,25.60
2024-05-09T10:25:09.920Z,25.54
2024-05-09T10:26:12.519Z,25.80
2024-05-09T10:27:15.619Z,24.83
2024-05-09T10:28:18.046Z,24.71
2024-05-09T10:29:21.007Z,25.49
2024-05-09T10:31:30.056Z,24.91
2024-05-09T10:32:38.919Z,24.25
2024-05-09T10:33:52.394Z,23.45
2024-05-09T10:35:07.077Z,24.17
2024-05-09T10:36:29.132Z,23.87
2024-05-09T10:37:32.068Z,23.82
2024-05-09T10:38:34.599Z,23.83
2024-05-09T10:39:40.026Z,23.40
2024-05-09T10:40:42.945Z,24.32
2024-05-09T10:41:45.448Z,24.87
2024-05-09T10:42:48.053Z,24.18
2024-05-09T10:43:51.086Z,23.91
2024-05-09T10:44:53.693Z,23.83
2024-05-09T10:45:56.165Z,23.73
2024-05-09T10:46:58.601Z,23.79
2024-05-09T10:48:01.280Z,24.02
2024-05-09T10:49:06.308Z,24.22
2024-05-09T10:50:18.475Z,23.39
2024-05-09T10:51:27.996Z,22.91
2024-05-09T10:52:30.494Z,22.59
2024-05-09T10:53:40.883Z,21.98
2024-05-09T10:54:43.338Z,22.17
2024-05-09T10:55:59.025Z,22.12
2024-05-09T10:57:01.479Z,22.46
2024-05-09T10:58:04.080Z,22.19
2024-05-09T10:59:06.559Z,21.34
2024-05-09T11:00:15.797Z,21.50
2024-05-09T11:01:25.401Z,21.18
2024-05-09T11:02:28.348Z,21.36
2024-05-09T11:03:31.113Z,21.89
2024-05-09T11:04:34.419Z,22.03
2024-05-09T11:05:37.242Z,22.03
2024-05-09T11:06:40.157Z,21.77
2024-05-09T11:07:42.641Z,21.22
2024-05-09T11:08:46.204Z,21.01
2024-05-09T11:09:49.083Z,21.87
2024-05-09T11:10:53.218Z,22.33
2024-05-09T11:11:55.895Z,21.63
2024-05-09T11:12:58.368Z,22.50
2024-05-09T11:14:00.818Z,22.20
2024-05-09T11:15:03.344Z,20.76
2024-05-09T11:16:17.618Z,22.01
2024-05-09T11:17:20.257Z,22.25
2024-05-09T11:18:25.883Z,22.65
2024-05-09T11:19:42.179Z,22.80
2024-05-09T11:20:44.717Z,21.66
2024-05-09T11:21:51.809Z,22.46
2024-05-09T11:22:54.359Z,21.70
2024-05-09T11:23:57.372Z,21.41
2024-05-09T11:24:59.889Z,19.97
2024-05-09T11:26:02.410Z,21.16
2024-05-09T11:27:05.855Z,19.96
2024-05-09T11:28:08.419Z,20.27
2024-05-09T11:29:10.885Z,19.76
2024-05-09T11:30:26.886Z,20.21
2024-05-09T11:31:45.616Z,21.56
2024-05-09T11:32:48.353Z,21.57
2024-05-09T11:33:54.114Z,21.91
2024-05-09T11:34:56.570Z,21.15
2024-05-09T11:35:58.995Z,22.02
2024-05-09T11:37:01.576Z,22.05
2024-05-09T11:38:04.512Z,20.47
2024-05-09T11:39:07.041Z,20.99
2024-05-09T11:40:16.791Z,20.27
2024-05-09T11:41:24.462Z,19.87
2024-05-09T11:42:26.941Z,21.00
2024-05-09T11:43:29.494Z,19.47
2024-05-09T11:44:32.109Z,19.90
2024-05-09T11:45:34.830Z,20.24
2024-05-09T11:46:37.288Z,20.27
2024-05-09T11:47:40.023Z,18.68
2024-05-09T11:48:42.800Z,18.91
2024-05-09T11:49:45.327Z,19.50
2024-05-09T11:50:47.762Z,20.29
2024-05-09T11:51:50.248Z,20.03
2024-05-09T11:52:52.716Z,20.74
2024-05-09T11:53:55.227Z,19.83
2024-05-09T11:54:57.764Z,19.57
2024-05-09T11:56:00.274Z,19.12
2024-05-09T11:57:02.708Z,19.42
2024-05-09T11:58:05.600Z,20.04
2024-05-09T11:59:08.217Z,20.13
2024-05-09T12:00:14.948Z,20.25
2024-05-09T12:01:21.338Z,20.18
2024-05-09T12:02:25.147Z,19.94
2024-05-09T12:03:27.768Z,19.61
2024-05-09T12:04:30.381Z,20.21
2024-05-09T12:05:34.006Z,18.96
2024-05-09T12:06:38.049Z,18.68
2024-05-09T12:07:40.584Z,19.21
2024-05-09T12:08:43.043Z,18.00
2024-05-09T12:09:45.606Z,18.47
2024-05-09T12:10:48.270Z,18.30
2024-05-09T12:11:50.826Z,18.69
2024-05-09T12:12:54.018Z,18.39
2024-05-09T12:13:56.478Z,18.05
2024-05-09T12:14:58.928Z,18.07
2024-05-09T12:16:01.434Z,17.47
2024-05-09T12:17:05.771Z,17.11
2024-05-09T12:18:08.692Z,17.29
2024-05-09T12:19:11.239Z,16.91
2024-05-09T12:20:21.318Z,17.22
2024-05-09T12:21:31.118Z,18.16
2024-05-09T12:22:33.584Z,18.42
2024-05-09T12:23:35.939Z,18.42
2024-05-09T12:24:38.377Z,17.92
2024-05-09T12:25:40.929Z,17.30
2024-05-09T12:26:43.430Z,17.21
2024-05-09T12:27:46.088Z,17.92
2024-05-09T12:28:48.684Z,17.95
2024-05-09T12:29:51.162Z,17.40
2024-05-09T12:30:53.574Z,17.93
2024-05-09T12:31:56.124Z,18.45
2024-05-09T12:32:58.608Z,19.23
2024-05-09T12:34:01.342Z,18.04
2024-05-09T12:35:04.013Z,18.29
2024-05-09T12:36:06.826Z,17.17
2024-05-09T12:37:09.392Z,16.82
2024-05-09T12:38:11.899Z,18.09
2024-05-09T12:39:14.336Z,16.88
2024-05-09T12:40:23.182Z,17.31
2024-05-09T12:41:33.873Z,17.45
2024-05-09T12:42:36.380Z,16.81
2024-05-09T12:43:38.851Z,15.83
2024-05-09T12:44:41.316Z,16.20
2024-05-09T12:45:43.840Z,16.07
2024-05-09T12:46:46.322Z,15.72
2024-05-09T12:47:48.760Z,15.83
2024-05-09T12:48:52.095Z,16.13
2024-05-09T12:49:54.846Z,15.30
2024-05-09T12:50:57.870Z,15.84
2024-05-09T12:52:00.536Z,15.51
2024-05-09T12:53:04.208Z,16.62
2024-05-09T12:54:07.207Z,16.09
2024-05-09T12:55:11.011Z,15.79
2024-05-09T12:56:13.500Z,16.94
2024-05-09T12:57:16.016Z,16.39
2024-05-09T12:58:18.766Z,15.86
2024-05-09T12:59:21.215Z,16.95
2024-05-09T13:00:28.339Z,16.20
2024-05-09T13:01:36.149Z,16.98
2024-05-09T13:02:38.813Z,17.09
2024-05-09T13:03:41.466Z,17.11
2024-05-09T13:04:44.074Z,17.51
2024-05-09T13:05:46.848Z,17.14
2024-05-09T13:06:49.495Z,17.28
2024-05-09T13:07:52.024Z,17.30
2024-05-09T13:08:54.493Z,17.12
2024-05-09T13:09:56.882Z,16.14
2024-05-09T13:10:59.375Z,16.98
2024-05-09T13:12:01.897Z,16.85
2024-05-09T13:13:04.602Z,16.89
2024-05-09T13:14:07.146Z,17.38
2024-05-09T13:15:09.577Z,16.78
2024-05-09T13:16:12.022Z,16.46
2024-05-09T13:17:14.422Z,15.43
2024-05-09T13:18:16.998Z,15.42
2024-05-09T13:19:19.449Z,16.00
2024-05-09T13:20:29.329Z,15.30
2024-05-09T13:21:35.573Z,15.49
2024-05-09T13:22:39.179Z,15.48
2024-05-09T13:23:41.661Z,15.75
2024-05-09T13:24:44.103Z,15.78
2024-05-09T13:25:46.534Z,16.01
2024-05-09T13:26:48.960Z,14.87
2024-05-09T13:27:51.398Z,15.46
2024-05-09T13:28:53.814Z,15.25
2024-05-09T13:29:57.563Z,15.50
2024-05-09T13:31:00.080Z,16.24
2024-05-09T13:32:02.571Z,15.52
2024-05-09T13:33:05.535Z,15.65
2024-05-09T13:34:08.468Z,15.92
2024-05-09T13:35:11.021Z,15.66
2024-05-09T13:36:13.579Z,16.14
2024-05-09T13:37:16.081Z,16.25
2024-05-09T13:38:20.144Z,16.20
2024-05-09T13:39:22.834Z,16.07
2024-05-09T13:40:32.231Z,15.92
2024-05-09T13:41:37.169Z,15.58
2024-05-09T13:42:39.602Z,15.47
2024-05-09T13:43:41.995Z,15.82
2024-05-09T13:44:44.409Z,15.74
2024-05-09T13:45:46.993Z,14.66